Time;durP1;ratioP1;P1;durP2;ratioP2;P2;SDS_P1;SDS_P2;PMS_P1;PMS_P2;Temp;Humidity;BMP_temperature;BMP_pressure;BME280_temperature;BME280_humidity;BME280_pressure;Samples;Min_cycle;Max_cycle;Signal;HPM_P1;HPM_P2
2022/03/27 00:01:28;;;;;;;163.30;76.90;;;6.80;99.90;;;;;;4985102;28;20025;-75
2022/03/27 00:03:53;;;;;;;126.05;53.47;;;6.80;99.90;;;;;;4965035;28;21039;-76
2022/03/27 00:06:19;;;;;;;167.63;80.32;;;6.80;99.90;;;;;;4966167;28;20030;-75
2022/03/27 00:08:45;;;;;;;35.45;15.85;;;6.80;99.90;;;;;;4967069;28;20033;-76
2022/03/27 00:11:27;;;;;;;22.40;6.05;;;6.80;99.90;;;;;;4952223;28;20069;-75
2022/03/27 00:13:55;;;;;;;18.42;6.10;;;6.90;99.90;;;;;;4966852;28;20050;-75
2022/03/27 00:16:21;;;;;;;19.50;5.72;;;6.90;99.90;;;;;;4973735;28;20133;-75
2022/03/27 00:18:47;;;;;;;19.42;6.25;;;6.80;99.90;;;;;;4968069;28;20037;-75
2022/03/27 00:21:14;;;;;;;21.95;6.70;;;6.80;99.90;;;;;;4982929;28;20430;-75
2022/03/27 00:23:40;;;;;;;23.05;5.90;;;6.70;99.90;;;;;;4982032;28;20026;-76
2022/03/27 00:26:06;;;;;;;18.30;5.78;;;6.70;99.90;;;;;;4984503;28;20031;-76
2022/03/27 00:28:32;;;;;;;20.13;6.43;;;6.60;99.90;;;;;;4983609;28;20521;-76
2022/03/27 00:31:00;;;;;;;21.63;6.60;;;6.70;99.90;;;;;;4966205;28;20031;-75
2022/03/27 00:33:26;;;;;;;21.85;6.40;;;6.60;99.90;;;;;;4982730;28;20129;-75
2022/03/27 00:35:53;;;;;;;27.92;6.90;;;6.70;99.90;;;;;;4984417;28;20038;-75
2022/03/27 00:38:19;;;;;;;22.33;6.90;;;6.70;99.90;;;;;;4965254;28;20371;-75
2022/03/27 00:40:45;;;;;;;19.70;7.00;;;6.60;99.90;;;;;;4982791;28;20050;-76
2022/03/27 00:43:11;;;;;;;21.80;6.47;;;6.60;99.90;;;;;;4965514;28;20053;-76
2022/03/27 00:45:37;;;;;;;21.73;6.80;;;6.70;99.90;;;;;;4989301;28;20037;-76
2022/03/27 00:48:03;;;;;;;25.58;6.38;;;6.60;99.90;;;;;;4965451;28;20031;-75
2022/03/27 00:50:30;;;;;;;24.48;7.45;;;6.60;99.90;;;;;;4966006;28;20174;-76
2022/03/27 00:52:57;;;;;;;19.63;7.20;;;6.60;99.90;;;;;;4980830;28;20478;-76
2022/03/27 00:55:23;;;;;;;21.75;7.95;;;6.50;99.90;;;;;;4965002;28;20619;-75
2022/03/27 00:57:49;;;;;;;16.58;6.35;;;6.50;99.90;;;;;;4964959;28;20046;-75
2022/03/27 01:00:45;;;;;;;23.15;7.70;;;6.50;99.90;;;;;;4964416;28;20070;-76
2022/03/27 01:03:17;;;;;;;24.02;7.07;;;6.40;99.90;;;;;;4979600;28;20442;-76
2022/03/27 01:05:43;;;;;;;;;;;6.40;99.90;;;;;;4965597;28;20033;-76
2022/03/27 01:08:11;;;;;;;20.08;6.63;;;6.40;99.90;;;;;;4982712;28;19937;-76
2022/03/27 01:10:38;;;;;;;21.05;7.55;;;6.40;99.90;;;;;;4965279;28;20101;-75
2022/03/27 01:13:18;;;;;;;18.60;7.45;;;6.40;99.90;;;;;;4965579;28;20526;-75
2022/03/27 01:15:53;;;;;;;16.60;6.93;;;6.40;99.90;;;;;;4965110;28;20035;-76
2022/03/27 01:18:19;;;;;;;16.80;7.13;;;6.40;99.90;;;;;;4982549;28;20023;-75
2022/03/27 01:20:45;;;;;;;29.70;8.45;;;6.40;99.90;;;;;;4965730;28;20029;-76
2022/03/27 01:23:12;;;;;;;19.92;7.53;;;6.40;99.90;;;;;;4965152;28;20030;-77
2022/03/27 01:25:41;;;;;;;20.58;7.75;;;6.30;99.90;;;;;;4980766;28;20105;-75
2022/03/27 01:28:08;;;;;;;23.80;8.20;;;6.30;99.90;;;;;;4980259;28;20035;-76
2022/03/27 01:30:35;;;;;;;24.17;9.82;;;6.30;99.90;;;;;;4982601;28;20030;-75
2022/03/27 01:33:02;;;;;;;21.45;10.32;;;6.20;99.90;;;;;;4979924;28;20027;-75
2022/03/27 01:35:28;;;;;;;22.65;10.05;;;6.00;99.90;;;;;;4964284;28;20111;-75
2022/03/27 01:37:54;;;;;;;17.65;8.98;;;5.90;99.90;;;;;;4964705;28;20546;-75
2022/03/27 01:40:20;;;;;;;21.35;9.52;;;5.80;99.90;;;;;;4963578;28;20929;-75
2022/03/27 01:42:46;;;;;;;20.63;9.05;;;5.80;99.90;;;;;;4964604;28;20031;-76
2022/03/27 01:45:12;;;;;;;24.48;9.82;;;5.80;99.90;;;;;;4964318;28;20443;-76
2022/03/27 01:47:38;;;;;;;24.30;10.55;;;5.90;99.90;;;;;;4978218;28;20144;-76
2022/03/27 01:50:08;;;;;;;18.77;9.52;;;5.90;99.90;;;;;;4964257;28;20046;-76
2022/03/27 01:52:34;;;;;;;25.42;10.38;;;5.90;99.90;;;;;;4981542;28;20035;-75
2022/03/27 01:55:00;;;;;;;22.02;9.52;;;5.80;99.90;;;;;;4966319;28;20118;-76
2022/03/27 01:57:26;;;;;;;26.88;11.13;;;5.80;99.90;;;;;;4964662;28;20033;-76
2022/03/27 01:59:52;;;;;;;24.42;9.27;;;5.80;99.90;;;;;;4980166;28;20590;-75
2022/03/27 02:02:23;;;;;;;22.48;9.88;;;5.80;99.90;;;;;;4985634;28;20027;-75
2022/03/27 02:04:50;;;;;;;24.88;10.13;;;5.80;99.90;;;;;;4979722;28;20462;-76
2022/03/27 02:07:17;;;;;;;22.20;10.00;;;5.90;99.90;;;;;;4964680;28;20034;-75
2022/03/27 02:09:42;;;;;;;27.60;9.52;;;5.90;99.90;;;;;;4965763;28;20038;-75
2022/03/27 02:12:08;;;;;;;22.45;9.80;;;5.80;99.90;;;;;;4964004;28;20039;-76
2022/03/27 02:14:34;;;;;;;19.27;9.50;;;6.00;99.90;;;;;;4982296;28;20105;-75
2022/03/27 02:16:59;;;;;;;27.48;10.57;;;6.00;99.90;;;;;;4982009;28;20110;-77
2022/03/27 02:19:25;;;;;;;28.40;9.35;;;6.00;99.90;;;;;;4980206;28;20073;-75
2022/03/27 02:21:51;;;;;;;22.85;9.95;;;5.90;99.90;;;;;;4964728;28;20057;-75
2022/03/27 02:24:17;;;;;;;22.05;9.55;;;5.70;99.90;;;;;;4981183;28;20554;-76
2022/03/27 02:26:45;;;;;;;24.48;8.90;;;5.70;99.90;;;;;;4964449;28;20517;-75
2022/03/27 02:29:13;;;;;;;17.77;9.63;;;5.70;99.90;;;;;;4986553;28;20587;-76
2022/03/27 02:31:39;;;;;;;17.55;9.32;;;5.70;99.90;;;;;;4970779;28;20027;-77
2022/03/27 02:34:04;;;;;;;15.07;9.45;;;5.60;99.90;;;;;;4983318;28;20038;-76
2022/03/27 02:36:31;;;;;;;19.38;9.40;;;5.50;99.90;;;;;;4981809;28;20069;-76
2022/03/27 02:38:56;;;;;;;21.27;9.23;;;5.60;99.90;;;;;;4962799;28;20498;-76
2022/03/27 02:41:22;;;;;;;15.65;9.13;;;5.60;99.90;;;;;;4981493;28;20053;-76
2022/03/27 02:43:48;;;;;;;22.20;9.25;;;5.60;99.90;;;;;;4983231;28;20019;-76
2022/03/27 02:46:13;;;;;;;16.48;9.55;;;5.80;99.90;;;;;;4979835;28;20061;-76
2022/03/27 02:48:39;;;;;;;21.58;10.68;;;5.80;99.90;;;;;;4985483;28;20149;-75
2022/03/27 02:51:05;;;;;;;19.38;10.45;;;5.70;99.90;;;;;;4948748;28;20453;-76
2022/03/27 02:53:30;;;;;;;22.75;10.95;;;5.80;99.90;;;;;;4949111;28;20026;-75
2022/03/27 02:55:56;;;;;;;25.92;10.57;;;5.90;99.90;;;;;;4963781;28;20035;-76
2022/03/27 02:58:22;;;;;;;22.30;10.57;;;5.80;99.90;;;;;;4979559;28;20395;-75
2022/03/27 03:00:48;;;;;;;24.98;10.50;;;5.80;99.90;;;;;;4962793;28;20066;-77
2022/03/27 03:03:14;;;;;;;28.98;10.88;;;5.70;99.90;;;;;;4979620;28;20105;-76
2022/03/27 03:05:41;;;;;;;27.40;11.07;;;5.60;99.90;;;;;;4962613;28;20061;-76
2022/03/27 03:08:11;;;;;;;31.75;11.90;;;5.40;99.90;;;;;;4982572;28;20034;-75
2022/03/27 03:10:40;;;;;;;23.40;11.15;;;5.40;99.90;;;;;;4962440;28;20033;-74
2022/03/27 03:13:08;;;;;;;28.35;11.32;;;5.30;99.90;;;;;;4981346;28;20049;-75
2022/03/27 03:15:36;;;;;;;28.25;11.65;;;5.30;99.90;;;;;;4964824;28;20529;-75
2022/03/27 03:18:04;;;;;;;29.50;11.85;;;5.40;99.90;;;;;;4964234;28;20672;-75
2022/03/27 03:20:30;;;;;;;26.92;12.38;;;5.50;99.90;;;;;;4946904;28;20073;-75
2022/03/27 03:22:55;;;;;;;26.27;11.38;;;5.50;99.90;;;;;;4980646;28;20030;-74
2022/03/27 03:25:23;;;;;;;30.92;12.18;;;5.50;99.90;;;;;;4982352;28;20558;-75
2022/03/27 03:27:49;;;;;;;24.63;11.68;;;5.60;99.90;;;;;;4960420;28;20117;-74
2022/03/27 03:30:16;;;;;;;20.17;10.50;;;5.60;99.90;;;;;;4979596;28;20158;-74
2022/03/27 03:32:42;;;;;;;22.13;10.68;;;5.70;99.90;;;;;;4978824;28;20031;-76
2022/03/27 03:35:09;;;;;;;29.20;12.25;;;5.50;99.90;;;;;;4987075;28;20117;-74
2022/03/27 03:37:35;;;;;;;28.05;11.30;;;5.60;99.90;;;;;;4963419;28;20030;-74
2022/03/27 03:40:02;;;;;;;24.00;10.57;;;5.70;99.90;;;;;;4949031;28;20027;-75
2022/03/27 03:42:28;;;;;;;26.40;11.18;;;5.70;99.90;;;;;;4978078;28;20110;-76
2022/03/27 03:44:53;;;;;;;22.73;11.07;;;5.60;99.90;;;;;;4962277;28;20077;-76
2022/03/27 03:47:19;;;;;;;28.15;11.65;;;5.70;99.90;;;;;;4980028;28;20027;-76
2022/03/27 03:49:45;;;;;;;21.65;11.27;;;5.70;99.90;;;;;;4962400;28;20065;-75
2022/03/27 03:52:12;;;;;;;24.77;11.32;;;5.60;99.90;;;;;;4962641;28;20117;-75
2022/03/27 03:54:37;;;;;;;24.52;10.95;;;5.50;99.90;;;;;;4963685;28;20050;-74
2022/03/27 03:57:05;;;;;;;29.75;11.57;;;5.60;99.90;;;;;;4980138;28;20038;-74
2022/03/27 03:59:36;;;;;;;41.55;11.90;;;5.80;99.90;;;;;;4963746;28;20034;-75
2022/03/27 04:02:03;;;;;;;22.65;11.15;;;5.70;99.90;;;;;;4962512;28;20023;-75
2022/03/27 04:04:30;;;;;;;22.50;12.02;;;5.70;99.90;;;;;;4979986;28;20490;-76
2022/03/27 04:06:56;;;;;;;25.02;10.98;;;5.70;99.90;;;;;;4962528;28;20035;-74
2022/03/27 04:09:22;;;;;;;22.88;12.00;;;5.70;99.90;;;;;;4961389;28;20037;-74
2022/03/27 04:11:48;;;;;;;22.58;10.20;;;5.70;99.90;;;;;;4979263;28;20053;-75
2022/03/27 04:14:13;;;;;;;18.08;10.90;;;5.80;99.90;;;;;;4966139;28;20027;-75
2022/03/27 04:16:39;;;;;;;19.10;9.93;;;5.80;99.90;;;;;;4984257;28;20486;-75
2022/03/27 04:19:05;;;;;;;22.63;9.77;;;5.80;99.90;;;;;;4986653;28;20074;-74
2022/03/27 04:21:31;;;;;;;20.90;10.48;;;5.80;99.90;;;;;;4966154;28;20141;-75
2022/03/27 04:23:57;;;;;;;20.27;10.35;;;5.70;99.90;;;;;;4983740;28;20497;-75
2022/03/27 04:26:23;;;;;;;18.30;9.30;;;5.80;99.90;;;;;;4984251;28;20035;-75
2022/03/27 04:28:48;;;;;;;16.45;8.93;;;5.70;99.90;;;;;;4985119;28;20026;-76
2022/03/27 04:31:14;;;;;;;17.05;9.05;;;5.60;99.90;;;;;;4965719;28;20031;-76
2022/03/27 04:33:40;;;;;;;20.02;10.43;;;5.60;99.90;;;;;;4983041;28;20031;-75
2022/03/27 04:36:07;;;;;;;18.27;9.63;;;5.60;99.90;;;;;;4967038;28;20057;-75
2022/03/27 04:38:33;;;;;;;15.60;9.57;;;5.70;99.90;;;;;;4983060;28;20037;-76
2022/03/27 04:40:59;;;;;;;15.20;8.52;;;5.60;99.90;;;;;;4966420;28;20110;-76
2022/03/27 04:43:25;;;;;;;13.82;8.65;;;5.70;99.90;;;;;;4981925;28;20026;-75
2022/03/27 04:45:51;;;;;;;14.15;8.77;;;5.50;99.90;;;;;;4980383;28;20029;-75
2022/03/27 04:48:17;;;;;;;14.15;8.32;;;5.50;99.90;;;;;;4966631;28;20030;-75
2022/03/27 04:50:43;;;;;;;15.98;8.30;;;5.50;99.90;;;;;;4988397;28;20561;-76
2022/03/27 04:53:09;;;;;;;16.10;8.68;;;5.40;99.90;;;;;;4982076;28;20026;-75
2022/03/27 04:55:35;;;;;;;17.65;9.20;;;5.30;99.90;;;;;;4965838;28;20050;-75
2022/03/27 04:58:00;;;;;;;14.55;8.63;;;5.40;99.90;;;;;;4983985;28;20517;-75
2022/03/27 05:00:26;;;;;;;14.00;8.55;;;5.30;99.90;;;;;;4981801;28;20030;-75
2022/03/27 05:02:52;;;;;;;12.88;7.55;;;5.40;99.90;;;;;;4981567;28;20073;-75
2022/03/27 05:05:17;;;;;;;13.02;7.82;;;5.30;99.90;;;;;;4983947;28;20034;-75
2022/03/27 05:07:44;;;;;;;13.32;7.85;;;5.30;99.90;;;;;;4964501;28;20126;-75
2022/03/27 05:10:11;;;;;;;13.65;8.32;;;5.20;99.90;;;;;;4966293;28;20026;-75
2022/03/27 05:12:37;;;;;;;12.05;7.85;;;5.20;99.90;;;;;;4964895;28;20038;-76
2022/03/27 05:15:04;;;;;;;26.25;7.93;;;5.20;99.90;;;;;;4983581;28;20041;-74
2022/03/27 05:17:30;;;;;;;16.70;8.20;;;5.10;99.90;;;;;;4982460;28;20054;-75
2022/03/27 05:19:55;;;;;;;18.15;9.10;;;5.00;99.90;;;;;;4984037;28;20057;-74
2022/03/27 05:22:21;;;;;;;18.67;8.90;;;5.00;99.90;;;;;;4964745;28;20030;-74
2022/03/27 05:24:47;;;;;;;14.25;8.07;;;5.00;99.90;;;;;;4966773;28;20074;-75
2022/03/27 05:27:16;;;;;;;37.95;9.02;;;5.00;99.90;;;;;;4950496;28;20031;-75
2022/03/27 05:29:41;;;;;;;12.90;8.70;;;5.00;99.90;;;;;;4986781;28;20570;-76
2022/03/27 05:32:08;;;;;;;14.30;8.00;;;4.90;99.90;;;;;;4950067;28;20117;-75
2022/03/27 05:34:34;;;;;;;13.98;8.00;;;4.90;99.90;;;;;;4948983;28;20113;-74
2022/03/27 05:36:59;;;;;;;14.98;7.97;;;4.90;99.90;;;;;;4964436;28;20105;-75
2022/03/27 05:39:25;;;;;;;16.77;8.30;;;5.00;99.90;;;;;;4985291;28;20170;-75
2022/03/27 05:41:51;;;;;;;22.95;9.20;;;5.10;99.90;;;;;;4987055;28;20491;-75
2022/03/27 05:44:16;;;;;;;21.00;9.85;;;5.10;99.90;;;;;;4984701;28;20023;-75
2022/03/27 05:46:42;;;;;;;18.63;9.45;;;5.00;99.90;;;;;;4965476;28;20514;-74
2022/03/27 05:49:07;;;;;;;13.65;8.60;;;5.00;99.90;;;;;;4979137;28;20560;-74
2022/03/27 05:51:33;;;;;;;18.20;9.02;;;4.90;99.90;;;;;;4980060;28;20057;-74
2022/03/27 05:53:59;;;;;;;11.95;8.00;;;5.00;99.90;;;;;;4959745;28;20037;-75
2022/03/27 05:56:25;;;;;;;27.13;9.40;;;5.00;99.90;;;;;;4968047;28;20463;-75
2022/03/27 05:58:50;;;;;;;15.07;8.23;;;5.00;99.90;;;;;;4990502;28;20106;-74
2022/03/27 06:01:16;;;;;;;19.23;9.02;;;5.00;99.90;;;;;;4981559;28;20027;-76
2022/03/27 06:03:42;;;;;;;15.60;8.52;;;5.00;99.90;;;;;;4967168;28;20034;-76
2022/03/27 06:06:08;;;;;;;15.68;7.57;;;5.00;99.90;;;;;;4982925;28;20105;-74
2022/03/27 06:08:34;;;;;;;15.85;8.30;;;5.00;99.90;;;;;;4961412;28;20113;-74
2022/03/27 06:11:00;;;;;;;15.60;8.18;;;5.00;99.90;;;;;;4948335;28;20114;-75
2022/03/27 06:13:25;;;;;;;13.55;7.70;;;5.10;99.90;;;;;;4962872;28;20022;-75
2022/03/27 06:15:51;;;;;;;16.48;7.15;;;5.10;99.90;;;;;;4949115;28;20034;-75
2022/03/27 06:18:17;;;;;;;12.63;6.82;;;5.20;99.90;;;;;;4948652;28;20034;-75
2022/03/27 06:20:43;;;;;;;12.30;7.65;;;5.20;99.90;;;;;;4949137;28;20506;-75
2022/03/27 06:23:09;;;;;;;15.68;7.70;;;5.20;99.90;;;;;;4977848;28;20027;-75
2022/03/27 06:25:38;;;;;;;14.18;6.57;;;5.20;99.90;;;;;;4963452;28;20023;-76
2022/03/27 06:28:04;;;;;;;12.23;7.10;;;5.10;99.90;;;;;;4978227;28;20522;-75
2022/03/27 06:30:32;;;;;;;12.00;6.70;;;5.30;99.90;;;;;;4964469;28;20073;-76
2022/03/27 06:32:59;;;;;;;19.05;7.28;;;5.20;99.90;;;;;;4964153;28;20888;-76
2022/03/27 06:35:24;;;;;;;14.15;7.68;;;5.20;99.90;;;;;;4954594;28;20125;-76
2022/03/27 06:37:51;;;;;;;15.15;7.20;;;5.30;99.90;;;;;;4963278;28;20097;-75
2022/03/27 06:40:19;;;;;;;18.70;7.07;;;5.30;99.90;;;;;;4983563;28;20033;-76
2022/03/27 06:42:46;;;;;;;13.68;6.82;;;5.30;99.90;;;;;;4976892;28;20110;-76
2022/03/27 06:45:14;;;;;;;14.40;7.22;;;5.40;99.90;;;;;;4962758;28;20487;-75
2022/03/27 06:47:41;;;;;;;18.65;7.75;;;5.40;99.90;;;;;;4995329;28;20518;-76
2022/03/27 06:50:08;;;;;;;13.93;7.25;;;5.60;99.90;;;;;;4981144;28;20045;-74
2022/03/27 06:52:34;;;;;;;14.82;7.45;;;5.50;99.90;;;;;;4960434;28;20088;-76
2022/03/27 06:55:00;;;;;;;15.27;7.60;;;5.50;99.90;;;;;;4962984;28;20038;-73
2022/03/27 06:57:26;;;;;;;14.40;7.65;;;5.40;99.90;;;;;;4980823;28;20041;-74
2022/03/27 07:05:22;;;;;;;13.88;8.00;;;5.60;99.90;;;;;;4981111;28;20539;-75
2022/03/27 07:07:49;;;;;;;17.73;8.48;;;5.70;99.90;;;;;;4982012;28;20077;-75
2022/03/27 07:10:15;;;;;;;14.32;8.23;;;5.90;99.90;;;;;;4963751;28;20042;-75
2022/03/27 07:12:42;;;;;;;22.52;9.38;;;5.90;99.90;;;;;;4949723;28;20037;-75
2022/03/27 07:15:10;;;;;;;17.42;9.35;;;6.10;99.90;;;;;;4980469;28;20556;-79
2022/03/27 07:17:48;;;;;;;17.45;8.20;;;6.10;99.90;;;;;;4983772;28;20597;-80
2022/03/27 07:20:19;;;;;;;19.85;9.13;;;6.20;99.90;;;;;;4979818;28;20509;-77
2022/03/27 07:22:45;;;;;;;15.45;8.45;;;5.90;99.90;;;;;;4980923;28;20023;-76
2022/03/27 07:25:11;;;;;;;18.70;8.10;;;5.90;99.90;;;;;;4961503;28;20525;-75
2022/03/27 07:27:39;;;;;;;18.05;8.48;;;5.90;99.90;;;;;;4960518;28;20035;-76
2022/03/27 07:30:06;;;;;;;15.50;8.70;;;5.80;99.90;;;;;;4978753;28;20035;-75
2022/03/27 07:32:32;;;;;;;18.23;9.00;;;5.80;99.90;;;;;;4946892;28;20657;-75
2022/03/27 07:34:57;;;;;;;19.42;8.68;;;5.80;99.90;;;;;;4953048;28;20033;-75
2022/03/27 07:37:24;;;;;;;21.52;8.68;;;5.90;99.90;;;;;;4979518;28;20054;-76
2022/03/27 07:39:50;;;;;;;17.85;8.35;;;5.90;99.90;;;;;;4962552;28;20030;-74
2022/03/27 07:42:16;;;;;;;22.30;9.07;;;5.90;99.90;;;;;;4978990;28;20124;-76
2022/03/27 07:44:41;;;;;;;15.65;8.27;;;6.00;99.90;;;;;;4961016;28;20480;-75
2022/03/27 07:47:07;;;;;;;19.15;9.00;;;6.10;99.90;;;;;;4985191;28;20022;-78
2022/03/27 07:49:33;;;;;;;17.85;8.50;;;6.20;99.90;;;;;;4986137;28;20140;-73
2022/03/27 07:52:05;;;;;;;16.60;7.97;;;6.20;99.90;;;;;;4968821;28;20061;-76
2022/03/27 07:54:31;;;;;;;18.58;7.43;;;6.20;99.90;;;;;;4963960;28;20548;-75
2022/03/27 07:56:57;;;;;;;19.33;7.60;;;6.40;99.90;;;;;;4981358;28;20035;-74
2022/03/27 07:59:23;;;;;;;19.92;7.82;;;6.40;99.90;;;;;;4979803;28;20464;-74
2022/03/27 08:01:51;;;;;;;14.93;6.90;;;6.60;99.90;;;;;;4985092;28;20026;-82
2022/03/27 08:04:16;;;;;;;17.50;7.03;;;6.50;99.90;;;;;;4977896;28;20030;-75
2022/03/27 08:06:43;;;;;;;16.08;7.43;;;6.50;99.90;;;;;;4984286;28;20515;-76
2022/03/27 08:09:09;;;;;;;22.02;7.55;;;6.40;99.90;;;;;;4984920;28;20027;-75
2022/03/27 08:11:41;;;;;;;23.48;8.10;;;6.10;99.90;;;;;;4967163;28;20030;-77
2022/03/27 08:14:08;;;;;;;18.77;8.23;;;6.20;99.90;;;;;;4984771;28;20029;-75
2022/03/27 08:16:38;;;;;;;23.33;8.45;;;6.50;99.90;;;;;;4967691;28;20517;-76
2022/03/27 08:19:04;;;;;;;22.13;8.82;;;6.50;99.90;;;;;;4983628;28;20038;-76
2022/03/27 08:21:29;;;;;;;23.27;9.70;;;6.70;99.90;;;;;;4950207;28;20088;-76
2022/03/27 08:23:55;;;;;;;23.73;9.32;;;6.80;99.90;;;;;;4966444;28;20248;-77
2022/03/27 08:29:05;;;;;;;27.48;9.82;;;6.90;99.90;;;;;;4981115;28;20058;-77
2022/03/27 08:31:32;;;;;;;23.25;9.40;;;7.00;99.90;;;;;;4965154;28;20030;-75
2022/03/27 08:33:58;;;;;;;33.17;10.52;;;7.10;99.90;;;;;;4964412;28;20033;-78
2022/03/27 08:36:24;;;;;;;24.25;9.63;;;7.10;99.90;;;;;;4967610;28;20061;-79
2022/03/27 08:38:50;;;;;;;30.65;10.07;;;7.10;99.90;;;;;;4984954;28;20026;-77
2022/03/27 08:41:16;;;;;;;17.08;7.65;;;7.10;99.90;;;;;;4970633;28;20894;-78
2022/03/27 08:43:43;;;;;;;20.42;9.43;;;7.10;99.90;;;;;;4983640;28;20042;-77
2022/03/27 08:46:09;;;;;;;26.63;9.68;;;7.20;99.90;;;;;;4988146;28;20526;-76
2022/03/27 08:48:42;;;;;;;24.02;9.45;;;7.40;99.90;;;;;;4968990;28;20034;-76
2022/03/27 08:51:26;;;;;;;24.50;8.93;;;7.40;99.90;;;;;;4990442;28;20510;-76
2022/03/27 08:54:07;;;;;;;27.02;9.00;;;7.40;99.90;;;;;;4966568;28;20083;-75
2022/03/27 08:56:34;;;;;;;27.48;8.90;;;7.50;99.90;;;;;;4967018;28;20038;-75
2022/03/27 08:59:06;;;;;;;17.90;7.82;;;7.50;99.90;;;;;;4964264;28;20530;-75
2022/03/27 09:01:32;;;;;;;27.08;8.77;;;7.40;99.90;;;;;;4966072;28;20061;-75
2022/03/27 09:03:58;;;;;;;30.92;9.68;;;7.60;99.90;;;;;;4964638;28;20038;-76
2022/03/27 09:06:25;;;;;;;25.98;9.45;;;7.70;99.90;;;;;;4983098;28;20039;-77
2022/03/27 09:08:52;;;;;;;26.23;9.75;;;7.70;99.90;;;;;;4963229;28;20038;-77
2022/03/27 09:11:39;;;;;;;34.67;9.82;;;7.80;99.90;;;;;;4965602;28;20517;-76
2022/03/27 09:14:08;;;;;;;29.15;9.90;;;7.70;99.90;;;;;;4940400;29;20174;-76
2022/03/27 09:17:03;;;;;;;28.95;9.90;;;7.80;99.90;;;;;;4908227;29;20102;-76
2022/03/27 09:19:38;;;;;;;28.88;9.32;;;7.90;99.90;;;;;;4937446;29;20187;-76
2022/03/27 09:22:45;;;;;;;23.50;9.50;;;7.80;99.90;;;;;;4921218;29;20071;-77
2022/03/27 09:25:10;;;;;;;30.90;10.38;;;7.80;99.90;;;;;;4885237;29;20171;-76
2022/03/27 09:27:37;;;;;;;29.88;11.27;;;7.80;99.90;;;;;;4865653;29;20672;-76
2022/03/27 09:30:08;;;;;;;25.15;9.00;;;7.80;99.90;;;;;;4883368;29;20049;-76
2022/03/27 09:32:39;;;;;;;28.25;9.73;;;8.00;99.90;;;;;;4883493;29;20048;-75
2022/03/27 09:35:08;;;;;;;22.70;8.63;;;7.90;99.90;;;;;;4885966;29;20033;-75
2022/03/27 09:37:41;;;;;;;27.50;10.00;;;7.90;99.90;;;;;;4882650;29;20049;-75
2022/03/27 09:40:08;;;;;;;31.10;12.85;;;8.00;99.90;;;;;;4882207;29;20151;-76
2022/03/27 09:42:37;;;;;;;39.90;18.58;;;8.10;99.90;;;;;;4878054;29;20127;-76
2022/03/27 09:45:17;;;;;;;35.67;17.38;;;8.10;99.90;;;;;;4869492;29;20072;-77
2022/03/27 09:47:46;;;;;;;49.17;18.50;;;8.10;99.90;;;;;;4864185;29;20838;-79
2022/03/27 09:50:34;;;;;;;37.55;15.85;;;8.10;99.90;;;;;;4886160;29;20042;-77
2022/03/27 09:53:23;;;;;;;32.08;13.38;;;8.00;99.90;;;;;;4926172;29;20035;-77
2022/03/27 09:56:14;;;;;;;29.05;11.38;;;8.00;99.90;;;;;;4958634;28;20043;-77
2022/03/27 09:58:45;;;;;;;29.92;9.93;;;8.00;99.90;;;;;;4970349;28;20038;-76
2022/03/27 10:01:18;;;;;;;29.60;9.27;;;8.10;99.90;;;;;;4963717;28;20132;-76
2022/03/27 10:04:02;;;;;;;24.50;10.10;;;8.10;99.90;;;;;;4962621;28;20549;-75
2022/03/27 10:06:38;;;;;;;29.02;10.57;;;8.20;99.90;;;;;;4979376;28;20069;-75
2022/03/27 10:09:06;;;;;;;25.67;9.70;;;8.20;99.90;;;;;;4962278;28;20041;-76
2022/03/27 10:11:34;;;;;;;29.58;10.50;;;8.30;99.90;;;;;;4982093;28;20030;-75
2022/03/27 10:14:03;;;;;;;26.35;10.60;;;8.50;99.90;;;;;;4964348;28;20050;-75
2022/03/27 10:16:37;;;;;;;29.52;9.93;;;8.50;99.90;;;;;;4987795;28;20023;-73
2022/03/27 10:19:05;;;;;;;35.20;10.77;;;8.60;99.90;;;;;;4982553;28;20030;-74
2022/03/27 10:21:32;;;;;;;37.00;11.35;;;8.70;99.90;;;;;;4977776;28;20108;-69
2022/03/27 10:24:10;;;;;;;27.27;11.63;;;8.80;99.90;;;;;;4976957;28;20113;-69
2022/03/27 10:26:37;;;;;;;30.48;10.63;;;8.80;99.90;;;;;;4959303;28;20391;-75
2022/03/27 10:29:05;;;;;;;27.33;11.25;;;8.90;99.90;;;;;;4977140;28;20034;-74
2022/03/27 10:31:31;;;;;;;27.13;12.18;;;8.90;99.90;;;;;;4961989;28;20039;-74
2022/03/27 10:34:00;;;;;;;32.83;11.73;;;9.10;99.90;;;;;;4948831;28;20117;-76
2022/03/27 10:36:49;;;;;;;33.20;12.68;;;9.20;99.90;;;;;;4964296;28;20031;-71
2022/03/27 10:39:25;;;;;;;26.70;11.75;;;9.30;99.90;;;;;;4983163;28;20062;-73
2022/03/27 10:41:57;;;;;;;34.78;12.25;;;9.20;99.90;;;;;;4964813;28;20105;-73
2022/03/27 10:44:37;;;;;;;30.02;12.48;;;9.30;99.90;;;;;;4980253;28;20541;-75
2022/03/27 10:47:23;;;;;;;32.70;12.73;;;9.40;99.90;;;;;;4962198;28;20030;-74
2022/03/27 10:50:01;;;;;;;29.38;11.57;;;9.50;99.90;;;;;;4981770;28;20775;-75
2022/03/27 10:52:32;;;;;;;25.30;11.50;;;9.60;99.90;;;;;;4980965;28;20410;-75
2022/03/27 10:55:07;;;;;;;31.10;11.98;;;9.60;99.90;;;;;;4961776;28;20033;-75
2022/03/27 10:57:38;;;;;;;27.25;10.63;;;9.70;99.90;;;;;;4977492;28;20041;-77
2022/03/27 11:00:07;;;;;;;30.48;11.13;;;9.80;99.90;;;;;;4964297;28;20026;-76
2022/03/27 11:02:45;;;;;;;27.23;12.55;;;9.90;99.90;;;;;;4963511;28;20045;-75
2022/03/27 11:05:41;;;;;;;32.08;13.35;;;10.20;99.90;;;;;;4962431;28;20965;-75
2022/03/27 11:08:19;;;;;;;29.17;12.15;;;10.80;99.90;;;;;;4880698;28;20048;-73
2022/03/27 11:10:50;;;;;;;31.40;11.40;;;11.90;99.90;;;;;;4964626;28;20049;-78
2022/03/27 11:13:39;;;;;;;29.73;11.77;;;13.30;99.90;;;;;;4962281;28;20042;-75
2022/03/27 11:16:13;;;;;;;27.83;11.48;;;14.90;99.90;;;;;;4975873;28;20042;-75
2022/03/27 11:18:48;;;;;;;28.85;10.68;;;16.20;98.20;;;;;;4964362;28;20042;-77
2022/03/27 11:21:34;;;;;;;22.65;9.15;;;17.20;96.30;;;;;;4979576;28;20495;-78
2022/03/27 11:24:02;;;;;;;21.80;8.85;;;18.60;91.50;;;;;;4973411;28;20038;-75
2022/03/27 11:26:32;;;;;;;23.60;10.60;;;19.40;86.40;;;;;;4965646;28;20606;-75
2022/03/27 11:29:19;;;;;;;28.58;9.75;;;20.10;76.90;;;;;;4950533;28;20060;-75
2022/03/27 11:31:45;;;;;;;19.70;8.60;;;20.20;72.30;;;;;;4982756;28;20435;-77
2022/03/27 11:34:17;;;;;;;23.20;11.07;;;20.30;71.10;;;;;;4983338;28;20624;-76
2022/03/27 11:36:48;;;;;;;21.52;10.52;;;19.70;69.90;;;;;;4978758;28;20049;-76
2022/03/27 11:39:29;;;;;;;19.52;10.57;;;19.10;71.40;;;;;;4980852;28;20035;-76
2022/03/27 11:42:15;;;;;;;18.40;10.85;;;18.70;73.20;;;;;;4964850;28;20046;-72
2022/03/27 11:47:40;;;;;;;25.85;13.00;;;17.70;77.00;;;;;;4985128;28;20022;-74
2022/03/27 11:50:06;;;;;;;26.35;14.20;;;17.20;78.20;;;;;;4984008;28;20026;-76
2022/03/27 11:52:33;;;;;;;25.40;12.55;;;17.30;78.90;;;;;;4968262;28;20046;-77
2022/03/27 11:55:05;;;;;;;26.15;12.18;;;17.00;83.50;;;;;;4973585;28;20023;-78
2022/03/27 11:57:53;;;;;;;23.85;11.80;;;17.10;81.60;;;;;;4997653;28;20027;-78
2022/03/27 12:00:36;;;;;;;23.17;11.93;;;17.00;84.70;;;;;;4970323;28;20023;-77
2022/03/27 12:03:04;;;;;;;22.13;11.88;;;16.80;82.20;;;;;;4966620;28;20077;-76
2022/03/27 12:05:35;;;;;;;21.70;11.45;;;16.50;85.90;;;;;;4964216;28;20030;-76
2022/03/27 12:08:02;;;;;;;25.58;12.10;;;16.20;84.60;;;;;;4983186;28;20034;-75
2022/03/27 12:10:39;;;;;;;22.67;11.57;;;16.00;86.50;;;;;;4966453;28;20041;-79
2022/03/27 12:13:08;;;;;;;26.33;10.65;;;16.40;84.90;;;;;;4979919;28;20125;-76
2022/03/27 12:15:50;;;;;;;26.35;10.63;;;16.40;84.40;;;;;;4980248;28;20085;-76
2022/03/27 12:18:39;;;;;;;19.65;10.07;;;16.50;83.90;;;;;;4983381;28;20034;-77
2022/03/27 12:21:09;;;;;;;21.05;10.38;;;16.80;84.50;;;;;;4984455;28;20026;-77
2022/03/27 12:23:46;;;;;;;24.73;10.70;;;17.00;83.50;;;;;;4950294;28;20034;-73
2022/03/27 12:31:57;;;;;;;13.98;8.52;;;18.30;80.00;;;;;;4986521;28;20034;-78
2022/03/27 12:34:24;;;;;;;16.17;8.90;;;19.00;77.40;;;;;;4975675;28;20121;-79
2022/03/27 12:37:19;;;;;;;17.05;7.95;;;19.70;75.10;;;;;;4964406;28;20037;-80
2022/03/27 12:39:47;;;;;;;13.48;7.07;;;20.20;71.40;;;;;;4985947;28;20065;-79
2022/03/27 12:42:43;;;;;;;20.20;7.82;;;19.90;70.80;;;;;;4986257;28;20031;-79
2022/03/27 12:45:17;;;;;;;16.27;8.13;;;18.70;71.80;;;;;;4986965;28;20069;-78
2022/03/27 12:47:58;;;;;;;14.05;7.00;;;17.70;74.20;;;;;;4963497;28;20038;-79
2022/03/27 12:50:36;;;;;;;17.92;7.72;;;16.90;76.70;;;;;;4965763;28;20034;-78
2022/03/27 12:53:06;;;;;;;12.43;6.82;;;16.20;79.60;;;;;;4980729;28;20031;-78
2022/03/27 12:55:46;;;;;;;14.15;7.90;;;15.70;81.90;;;;;;4989083;28;20026;-76
2022/03/27 12:58:14;;;;;;;14.17;7.67;;;15.30;83.60;;;;;;4983018;28;20038;-78
2022/03/27 13:00:41;;;;;;;14.48;6.97;;;15.00;85.30;;;;;;4967549;28;20054;-80
2022/03/27 13:03:25;;;;;;;13.23;7.38;;;14.70;86.50;;;;;;4962575;28;20067;-79
2022/03/27 13:05:56;;;;;;;18.75;8.20;;;14.30;88.50;;;;;;4982852;28;20922;-76
2022/03/27 13:08:26;;;;;;;15.38;7.90;;;14.10;90.30;;;;;;4988781;28;20100;-77
2022/03/27 13:10:59;;;;;;;14.95;7.78;;;13.90;90.90;;;;;;4964991;28;20066;-77